Time;durP1;ratioP1;P1;durP2;ratioP2;P2;SDS_P1;SDS_P2;PMS_P1;PMS_P2;Temp;Humidity;BMP_temperature;BMP_pressure;BME280_temperature;BME280_humidity;BME280_pressure;Samples;Min_cycle;Max_cycle;Signal;HPM_P1;HPM_P2
2021/09/06 00:02:39;;;;;;;1.75;0.47;;;;;;;;;;10570988;27;20129;-68
2021/09/06 00:07:45;;;;;;;2.13;0.60;;;;;;;;;;10574696;28;20120;-68
2021/09/06 00:12:49;;;;;;;4.95;1.35;;;;;;;;;;10566878;28;20126;-68
2021/09/06 00:17:52;;;;;;;1.38;0.40;;;;;;;;;;10573764;27;20123;-68
2021/09/06 00:22:54;;;;;;;3.38;1.00;;;;;;;;;;10565753;27;20047;-68
2021/09/06 00:27:59;;;;;;;4.30;1.05;;;;;;;;;;10571476;28;20051;-68
2021/09/06 00:33:04;;;;;;;2.25;0.52;;;;;;;;;;10568881;28;20043;-68
2021/09/06 00:38:06;;;;;;;6.32;1.98;;;;;;;;;;10574271;28;20087;-65
2021/09/06 00:43:17;;;;;;;7.20;1.65;;;;;;;;;;10575418;27;20079;-66
2021/09/06 00:48:20;;;;;;;5.90;1.57;;;;;;;;;;10561892;28;20048;-66
2021/09/06 00:53:25;;;;;;;2.03;0.70;;;;;;;;;;10571764;28;20127;-66
2021/09/06 00:58:32;;;;;;;1.83;0.50;;;;;;;;;;10566414;28;20050;-65
2021/09/06 01:03:41;;;;;;;0.70;0.20;;;;;;;;;;10570426;27;20035;-65
2021/09/06 01:09:27;;;;;;;1.38;0.30;;;;;;;;;;10558118;28;20052;-66
2021/09/06 01:14:56;;;;;;;4.03;0.93;;;;;;;;;;10570696;27;20051;-65
2021/09/06 01:20:06;;;;;;;0.15;0.10;;;;;;;;;;10569779;27;20453;-65
2021/09/06 01:25:20;;;;;;;0.98;0.25;;;;;;;;;;10560610;28;20059;-65
2021/09/06 01:30:29;;;;;;;0.87;0.30;;;;;;;;;;10571222;27;20052;-65
2021/09/06 01:41:06;;;;;;;1.10;0.30;;;;;;;;;;10553353;28;20052;-65
2021/09/06 01:46:14;;;;;;;2.38;0.40;;;;;;;;;;10564561;28;20481;-66
2021/09/06 01:51:18;;;;;;;2.45;0.65;;;;;;;;;;10555923;28;20051;-66
2021/09/06 01:56:22;;;;;;;0.93;0.30;;;;;;;;;;10565006;28;20071;-66
2021/09/06 02:01:28;;;;;;;0.68;0.20;;;;;;;;;;10567553;27;20043;-66
2021/09/06 02:06:33;;;;;;;1.75;0.40;;;;;;;;;;10567177;28;20073;-66
2021/09/06 02:11:46;;;;;;;2.10;0.82;;;;;;;;;;10568484;28;20042;-66
2021/09/06 02:16:52;;;;;;;0.20;0.10;;;;;;;;;;10571775;27;20047;-66
2021/09/06 02:22:14;;;;;;;0.10;0.10;;;;;;;;;;10556750;28;20081;-65
2021/09/06 02:27:27;;;;;;;0.80;0.20;;;;;;;;;;10566323;28;20053;-65
2021/09/06 02:32:33;;;;;;;1.60;0.63;;;;;;;;;;10567519;28;20063;-66
2021/09/06 02:37:54;;;;;;;5.05;1.48;;;;;;;;;;10572172;28;20048;-65
2021/09/06 02:43:06;;;;;;;3.47;1.10;;;;;;;;;;10572812;27;20057;-65
2021/09/06 02:48:12;;;;;;;5.80;1.70;;;;;;;;;;10567670;28;20449;-67
2021/09/06 02:53:15;;;;;;;1.35;0.40;;;;;;;;;;10570038;27;20036;-66
2021/09/06 02:58:18;;;;;;;0.77;0.20;;;;;;;;;;10571320;28;20047;-67
2021/09/06 03:03:29;;;;;;;0.50;0.20;;;;;;;;;;10542530;27;20044;-67
2021/09/06 03:08:35;;;;;;;0.52;0.20;;;;;;;;;;10544744;28;20090;-67
2021/09/06 03:13:44;;;;;;;3.00;0.80;;;;;;;;;;10542043;28;20051;-66
2021/09/06 03:18:52;;;;;;;1.15;0.40;;;;;;;;;;10527521;28;20401;-66
2021/09/06 03:24:12;;;;;;;0.77;0.20;;;;;;;;;;10510038;28;20040;-66
2021/09/06 03:29:15;;;;;;;1.35;0.40;;;;;;;;;;10528060;28;20040;-65
2021/09/06 03:34:21;;;;;;;0.65;0.20;;;;;;;;;;10513788;28;20054;-67
2021/09/06 03:39:25;;;;;;;0.50;0.20;;;;;;;;;;10487088;28;20055;-66
2021/09/06 03:44:32;;;;;;;2.78;0.90;;;;;;;;;;10486215;28;20045;-66
2021/09/06 03:49:46;;;;;;;3.05;0.73;;;;;;;;;;10483049;28;20071;-66
2021/09/06 03:54:52;;;;;;;0.93;0.28;;;;;;;;;;10486135;28;20094;-66
2021/09/06 03:59:56;;;;;;;1.88;0.40;;;;;;;;;;10484515;28;20151;-68
2021/09/06 04:05:00;;;;;;;1.20;0.40;;;;;;;;;;10485240;28;20036;-66
2021/09/06 04:10:04;;;;;;;1.70;0.50;;;;;;;;;;10482255;28;20048;-66
2021/09/06 04:15:37;;;;;;;0.38;0.13;;;;;;;;;;10486037;28;20131;-66
2021/09/06 04:21:18;;;;;;;1.13;0.28;;;;;;;;;;10481687;28;20048;-68
2021/09/06 04:26:29;;;;;;;0.20;0.10;;;;;;;;;;10483138;28;20131;-66
2021/09/06 04:31:31;;;;;;;0.35;0.10;;;;;;;;;;10487031;28;20589;-68
2021/09/06 04:36:35;;;;;;;0.15;0.10;;;;;;;;;;10484261;28;20049;-66
2021/09/06 04:41:39;;;;;;;0.25;0.20;;;;;;;;;;10512226;28;20458;-67
2021/09/06 04:46:42;;;;;;;0.52;0.20;;;;;;;;;;10513496;28;20056;-66
2021/09/06 04:51:47;;;;;;;1.23;0.30;;;;;;;;;;10515507;28;20463;-66
2021/09/06 04:56:54;;;;;;;1.05;0.22;;;;;;;;;;10518115;28;20448;-67
2021/09/06 05:01:58;;;;;;;0.90;0.30;;;;;;;;;;10513552;28;20414;-67
2021/09/06 05:07:28;;;;;;;0.35;0.13;;;;;;;;;;10530805;28;20032;-67
2021/09/06 05:12:34;;;;;;;0.85;0.20;;;;;;;;;;10545931;28;20094;-67
2021/09/06 05:17:55;;;;;;;0.50;0.20;;;;;;;;;;10525606;28;20909;-67
2021/09/06 05:23:24;;;;;;;0.87;0.20;;;;;;;;;;10516141;28;20094;-67
2021/09/06 05:28:30;;;;;;;1.25;0.28;;;;;;;;;;10509555;28;20541;-67
2021/09/06 05:33:33;;;;;;;0.35;0.15;;;;;;;;;;10509475;28;20047;-67
2021/09/06 05:38:36;;;;;;;1.80;0.30;;;;;;;;;;10543748;28;20507;-68
2021/09/06 05:43:58;;;;;;;0.37;0.10;;;;;;;;;;10527875;28;20044;-67
2021/09/06 05:49:03;;;;;;;0.63;0.20;;;;;;;;;;10508759;28;20080;-68
2021/09/06 05:54:09;;;;;;;0.10;0.10;;;;;;;;;;10540582;28;20071;-70
2021/09/06 05:59:13;;;;;;;0.60;0.13;;;;;;;;;;10507823;28;20577;-69
2021/09/06 06:04:16;;;;;;;0.47;0.10;;;;;;;;;;10564827;28;20062;-68
2021/09/06 06:09:23;;;;;;;0.65;0.13;;;;;;;;;;10506290;28;20058;-69
2021/09/06 06:14:28;;;;;;;0.17;0.10;;;;;;;;;;10506477;28;20465;-72
2021/09/06 06:19:32;;;;;;;1.15;0.30;;;;;;;;;;10516914;28;20052;-71
2021/09/06 06:24:59;;;;;;;0.10;0.10;;;;;;;;;;10540427;28;20055;-73
2021/09/06 06:30:16;;;;;;;1.42;0.43;;;;;;;;;;10509876;28;20121;-73
2021/09/06 06:35:20;;;;;;;0.50;0.20;;;;;;;;;;10507172;28;20484;-68
2021/09/06 06:40:23;;;;;;;0.25;0.10;;;;;;;;;;10479922;28;20090;-69
2021/09/06 06:45:32;;;;;;;0.03;0.03;;;;;;;;;;10480309;28;20371;-68
2021/09/06 06:50:35;;;;;;;2.88;0.73;;;;;;;;;;10481457;28;20059;-71
2021/09/06 06:55:38;;;;;;;1.50;0.40;;;;;;;;;;10481847;28;20051;-68
2021/09/06 07:00:42;;;;;;;1.85;0.50;;;;;;;;;;10490349;28;20055;-74
2021/09/06 07:05:45;;;;;;;2.80;0.82;;;;;;;;;;10522678;28;20040;-72
2021/09/06 07:10:49;;;;;;;1.95;0.50;;;;;;;;;;10482531;28;20056;-69
2021/09/06 07:15:54;;;;;;;2.33;0.70;;;;;;;;;;10487830;28;20392;-70
2021/09/06 07:20:57;;;;;;;1.65;0.43;;;;;;;;;;10483853;28;20181;-70
2021/09/06 07:26:03;;;;;;;0.50;0.20;;;;;;;;;;10479767;28;20142;-70
2021/09/06 07:31:08;;;;;;;1.25;0.30;;;;;;;;;;10480327;28;20102;-70
2021/09/06 07:36:11;;;;;;;0.55;0.20;;;;;;;;;;10481179;28;20871;-70
2021/09/06 07:41:14;;;;;;;0.35;0.13;;;;;;;;;;10519953;28;20080;-70
2021/09/06 07:46:19;;;;;;;1.38;0.30;;;;;;;;;;10504938;28;20055;-70
2021/09/06 07:51:22;;;;;;;0.38;0.20;;;;;;;;;;10504685;28;20131;-73
2021/09/06 07:56:25;;;;;;;0.10;0.08;;;;;;;;;;10505052;28;20079;-71
2021/09/06 08:01:30;;;;;;;0.98;0.20;;;;;;;;;;10494580;28;20086;-72
2021/09/06 08:06:33;;;;;;;0.00;0.00;;;;;;;;;;10546515;28;20130;-71
2021/09/06 08:11:36;;;;;;;0.63;0.20;;;;;;;;;;10503687;28;20052;-73
2021/09/06 08:16:41;;;;;;;0.00;0.00;;;;;;;;;;10529331;28;20043;-70
2021/09/06 08:21:43;;;;;;;0.10;0.10;;;;;;;;;;10543128;28;20051;-72
2021/09/06 08:26:47;;;;;;;0.00;0.00;;;;;;;;;;10512045;28;20048;-72
2021/09/06 08:31:51;;;;;;;0.10;0.10;;;;;;;;;;10512246;28;20117;-71
2021/09/06 08:36:54;;;;;;;0.43;0.10;;;;;;;;;;10511797;28;20063;-72
2021/09/06 08:41:59;;;;;;;0.00;0.00;;;;;;;;;;10545570;28;20419;-71
2021/09/06 08:47:04;;;;;;;0.00;0.00;;;;;;;;;;10510050;28;20417;-69
2021/09/06 08:52:07;;;;;;;0.08;0.00;;;;;;;;;;10511367;28;20051;-71
2021/09/06 08:57:10;;;;;;;0.00;0.00;;;;;;;;;;10509426;28;20052;-70
2021/09/06 09:02:21;;;;;;;0.00;0.00;;;;;;;;;;10532417;28;20040;-69
2021/09/06 09:07:34;;;;;;;0.00;0.00;;;;;;;;;;10543987;28;20054;-71
2021/09/06 09:13:10;;;;;;;0.00;0.00;;;;;;;;;;10509805;28;20467;-70
2021/09/06 09:18:35;;;;;;;0.00;0.00;;;;;;;;;;10535603;28;20052;-70
2021/09/06 09:24:02;;;;;;;0.00;0.00;;;;;;;;;;10522484;28;20054;-70
2021/09/06 09:29:20;;;;;;;0.00;0.00;;;;;;;;;;10514007;28;20044;-70
2021/09/06 09:34:31;;;;;;;0.00;0.00;;;;;;;;;;10509350;28;20044;-70
2021/09/06 09:39:53;;;;;;;0.00;0.00;;;;;;;;;;10509008;28;20055;-72
2021/09/06 09:44:56;;;;;;;0.00;0.00;;;;;;;;;;10527026;28;20127;-72
2021/09/06 09:50:22;;;;;;;0.00;0.00;;;;;;;;;;10524866;28;20071;-72
2021/09/06 09:55:25;;;;;;;0.00;0.00;;;;;;;;;;10527528;28;20044;-72
2021/09/06 10:00:27;;;;;;;0.00;0.00;;;;;;;;;;10533137;28;20047;-72
2021/09/06 10:05:33;;;;;;;0.00;0.00;;;;;;;;;;10569390;28;20144;-72
2021/09/06 10:10:41;;;;;;;0.00;0.00;;;;;;;;;;10534836;28;20036;-72
2021/09/06 10:15:56;;;;;;;0.00;0.00;;;;;;;;;;10527774;28;20430;-72
2021/09/06 10:21:10;;;;;;;0.00;0.00;;;;;;;;;;10548782;27;20569;-73
2021/09/06 10:26:16;;;;;;;0.00;0.00;;;;;;;;;;10523789;28;20048;-74
2021/09/06 10:31:20;;;;;;;0.00;0.00;;;;;;;;;;10525769;28;20040;-75
2021/09/06 10:36:26;;;;;;;0.10;0.00;;;;;;;;;;10506325;28;20040;-74
2021/09/06 10:41:30;;;;;;;0.00;0.00;;;;;;;;;;10418149;28;20055;-73
2021/09/06 10:46:32;;;;;;;0.00;0.00;;;;;;;;;;10442215;28;20064;-74
2021/09/06 10:51:37;;;;;;;0.00;0.00;;;;;;;;;;10431939;28;20558;-74
2021/09/06 10:56:43;;;;;;;0.00;0.00;;;;;;;;;;10441834;28;20455;-71
2021/09/06 11:01:50;;;;;;;0.00;0.00;;;;;;;;;;10458722;28;20075;-72
2021/09/06 11:07:01;;;;;;;0.00;0.00;;;;;;;;;;10487184;28;20057;-71
2021/09/06 11:12:05;;;;;;;0.00;0.00;;;;;;;;;;10419963;28;20049;-71
2021/09/06 11:17:22;;;;;;;0.00;0.00;;;;;;;;;;10451897;28;20040;-71
2021/09/06 11:22:27;;;;;;;0.00;0.00;;;;;;;;;;10440585;28;20048;-71
2021/09/06 11:27:31;;;;;;;0.00;0.00;;;;;;;;;;10438926;28;20041;-71
2021/09/06 11:32:33;;;;;;;0.00;0.00;;;;;;;;;;10440470;28;20072;-72
2021/09/06 11:37:38;;;;;;;0.00;0.00;;;;;;;;;;10454257;28;20060;-70
2021/09/06 11:42:41;;;;;;;0.00;0.00;;;;;;;;;;10505980;28;20570;-72
2021/09/06 11:47:44;;;;;;;0.00;0.00;;;;;;;;;;10524539;28;20102;-72
2021/09/06 11:52:48;;;;;;;0.00;0.00;;;;;;;;;;10523828;28;20047;-70
2021/09/06 11:57:51;;;;;;;0.00;0.00;;;;;;;;;;10530737;28;20050;-72
2021/09/06 12:02:56;;;;;;;0.00;0.00;;;;;;;;;;10530649;28;20146;-70
2021/09/06 12:08:00;;;;;;;0.00;0.00;;;;;;;;;;10531682;28;20143;-70
2021/09/06 12:13:04;;;;;;;0.00;0.00;;;;;;;;;;10530880;28;20110;-70
2021/09/06 12:18:11;;;;;;;0.00;0.00;;;;;;;;;;10540018;28;20048;-71
2021/09/06 12:23:26;;;;;;;0.00;0.00;;;;;;;;;;10511987;28;20798;-70
2021/09/06 12:28:29;;;;;;;0.00;0.00;;;;;;;;;;10530528;28;20135;-70
2021/09/06 12:33:32;;;;;;;0.70;0.00;;;;;;;;;;10511099;28;20127;-70
2021/09/06 12:38:37;;;;;;;0.00;0.00;;;;;;;;;;10530183;28;20808;-70
2021/09/06 12:43:40;;;;;;;0.00;0.00;;;;;;;;;;10529314;28;20052;-70
2021/09/06 12:48:42;;;;;;;0.00;0.00;;;;;;;;;;10530673;28;20054;-73
2021/09/06 12:53:46;;;;;;;0.00;0.00;;;;;;;;;;10528255;28;20044;-72
2021/09/06 12:58:50;;;;;;;0.00;0.00;;;;;;;;;;10506927;28;20487;-72
2021/09/06 13:03:53;;;;;;;0.00;0.00;;;;;;;;;;10520857;28;20056;-72
2021/09/06 13:08:58;;;;;;;0.00;0.00;;;;;;;;;;10529307;28;20117;-69
2021/09/06 13:14:04;;;;;;;0.00;0.00;;;;;;;;;;10511260;28;20058;-71
2021/09/06 13:19:07;;;;;;;0.00;0.00;;;;;;;;;;10536793;28;20056;-69
2021/09/06 13:24:12;;;;;;;0.00;0.00;;;;;;;;;;10529005;28;20045;-71
2021/09/06 13:29:19;;;;;;;0.00;0.00;;;;;;;;;;10528217;28;20048;-75
2021/09/06 13:34:22;;;;;;;0.00;0.00;;;;;;;;;;10527371;28;20036;-70
2021/09/06 13:39:26;;;;;;;0.00;0.00;;;;;;;;;;10525058;28;20048;-73
2021/09/06 13:44:29;;;;;;;0.00;0.00;;;;;;;;;;10508299;28;20056;-73
2021/09/06 13:49:32;;;;;;;0.00;0.00;;;;;;;;;;10527549;28;20052;-72
2021/09/06 13:54:36;;;;;;;0.00;0.00;;;;;;;;;;10526131;28;20044;-72
2021/09/06 13:59:39;;;;;;;0.00;0.00;;;;;;;;;;10514897;28;20633;-66
2021/09/06 14:04:42;;;;;;;0.00;0.00;;;;;;;;;;10501111;28;20486;-67
2021/09/06 14:09:46;;;;;;;0.00;0.00;;;;;;;;;;10523412;28;20864;-70
2021/09/06 14:14:49;;;;;;;0.00;0.00;;;;;;;;;;10526140;28;20439;-74
2021/09/06 14:19:52;;;;;;;0.00;0.00;;;;;;;;;;10535728;28;20520;-73
2021/09/06 14:24:56;;;;;;;0.00;0.00;;;;;;;;;;10500452;28;20040;-70
2021/09/06 14:29:59;;;;;;;0.00;0.00;;;;;;;;;;10524664;28;20441;-67
2021/09/06 14:35:02;;;;;;;0.00;0.00;;;;;;;;;;10524482;28;20068;-70
2021/09/06 14:40:07;;;;;;;0.00;0.00;;;;;;;;;;10524377;28;20391;-66
2021/09/06 14:45:12;;;;;;;0.00;0.00;;;;;;;;;;10524516;28;20043;-66
2021/09/06 14:50:34;;;;;;;0.00;0.00;;;;;;;;;;10525387;28;20050;-72
2021/09/06 14:55:40;;;;;;;0.00;0.00;;;;;;;;;;10508899;28;20043;-73
2021/09/06 15:00:43;;;;;;;0.00;0.00;;;;;;;;;;10498954;28;20934;-72
2021/09/06 15:05:48;;;;;;;0.00;0.00;;;;;;;;;;10483767;28;20109;-72
2021/09/06 15:10:57;;;;;;;0.00;0.00;;;;;;;;;;10517499;28;20056;-72
2021/09/06 15:16:03;;;;;;;0.10;0.00;;;;;;;;;;10492773;28;20052;-73
2021/09/06 15:21:10;;;;;;;0.32;0.00;;;;;;;;;;10502503;28;20174;-73
2021/09/06 15:26:14;;;;;;;0.00;0.00;;;;;;;;;;10500346;28;20210;-72
2021/09/06 15:31:40;;;;;;;0.00;0.00;;;;;;;;;;10501523;28;20051;-73
2021/09/06 15:36:44;;;;;;;0.00;0.00;;;;;;;;;;10493393;28;20068;-73
2021/09/06 15:41:51;;;;;;;0.00;0.00;;;;;;;;;;10501642;28;20063;-73
2021/09/06 15:46:54;;;;;;;0.10;0.00;;;;;;;;;;10497557;28;20044;-73
2021/09/06 15:51:58;;;;;;;0.00;0.00;;;;;;;;;;10500680;28;20048;-73
2021/09/06 15:57:02;;;;;;;0.00;0.00;;;;;;;;;;10483433;28;20090;-69
2021/09/06 16:02:05;;;;;;;0.00;0.00;;;;;;;;;;10497766;28;20409;-72
2021/09/06 16:07:09;;;;;;;0.00;0.00;;;;;;;;;;10499737;28;20044;-72
2021/09/06 16:12:13;;;;;;;0.00;0.00;;;;;;;;;;10484904;28;20047;-65
2021/09/06 16:17:16;;;;;;;0.00;0.00;;;;;;;;;;10500955;28;20040;-66
2021/09/06 16:22:21;;;;;;;0.00;0.00;;;;;;;;;;10500593;28;20040;-68
2021/09/06 16:27:26;;;;;;;0.00;0.00;;;;;;;;;;10504370;28;20044;-66
2021/09/06 16:32:29;;;;;;;0.00;0.00;;;;;;;;;;10501957;28;20062;-74
2021/09/06 16:37:34;;;;;;;0.00;0.00;;;;;;;;;;10500699;28;20052;-75
2021/09/06 16:42:38;;;;;;;0.00;0.00;;;;;;;;;;10504995;28;20048;-73
2021/09/06 16:47:41;;;;;;;0.00;0.00;;;;;;;;;;10508844;28;20046;-73
2021/09/06 16:52:45;;;;;;;0.00;0.00;;;;;;;;;;10510064;28;20055;-68
2021/09/06 16:57:49;;;;;;;0.00;0.00;;;;;;;;;;10509833;28;20075;-67
2021/09/06 17:02:55;;;;;;;0.00;0.00;;;;;;;;;;10490872;28;20062;-68
2021/09/06 17:07:58;;;;;;;0.30;0.00;;;;;;;;;;10513774;28;20044;-67
2021/09/06 17:13:03;;;;;;;0.00;0.00;;;;;;;;;;10513012;28;20044;-68
2021/09/06 17:18:06;;;;;;;0.00;0.00;;;;;;;;;;10509547;28;20040;-68
2021/09/06 17:23:08;;;;;;;0.00;0.00;;;;;;;;;;10511302;28;20379;-68
2021/09/06 17:28:13;;;;;;;0.00;0.00;;;;;;;;;;10510469;28;20078;-68
2021/09/06 17:33:17;;;;;;;0.00;0.00;;;;;;;;;;10510208;28;20113;-65
2021/09/06 17:38:20;;;;;;;0.10;0.00;;;;;;;;;;10502809;28;20067;-64
2021/09/06 17:43:24;;;;;;;0.00;0.00;;;;;;;;;;10508815;28;20040;-67
2021/09/06 17:48:27;;;;;;;0.17;0.05;;;;;;;;;;10504937;28;20052;-65
2021/09/06 17:53:30;;;;;;;0.00;0.00;;;;;;;;;;10489570;28;20158;-68
2021/09/06 17:58:34;;;;;;;0.30;0.00;;;;;;;;;;10505845;28;20119;-74
2021/09/06 18:03:37;;;;;;;0.20;0.00;;;;;;;;;;10504418;28;20718;-68
2021/09/06 18:08:42;;;;;;;0.10;0.00;;;;;;;;;;10507769;28;20338;-67
2021/09/06 18:13:46;;;;;;;0.00;0.00;;;;;;;;;;10516933;28;20055;-63
2021/09/06 18:18:50;;;;;;;0.10;0.00;;;;;;;;;;10524139;28;20048;-66
2021/09/06 18:23:53;;;;;;;0.00;0.00;;;;;;;;;;10522097;28;20077;-64
2021/09/06 18:29:01;;;;;;;0.00;0.00;;;;;;;;;;10518769;28;20316;-66
2021/09/06 18:34:04;;;;;;;0.00;0.00;;;;;;;;;;10519234;28;20056;-67
2021/09/06 18:39:07;;;;;;;0.00;0.00;;;;;;;;;;10519258;28;20054;-65
2021/09/06 18:44:11;;;;;;;0.00;0.00;;;;;;;;;;10517346;28;20048;-67
2021/09/06 18:49:14;;;;;;;0.10;0.00;;;;;;;;;;10520025;28;20046;-67
2021/09/06 18:54:17;;;;;;;0.10;0.00;;;;;;;;;;10522251;28;20052;-66
2021/09/06 18:59:23;;;;;;;0.00;0.00;;;;;;;;;;10518876;28;20422;-67
2021/09/06 19:04:26;;;;;;;0.00;0.00;;;;;;;;;;10515991;28;20056;-67
2021/09/06 19:09:33;;;;;;;0.00;0.00;;;;;;;;;;10496185;28;20067;-64
2021/09/06 19:14:40;;;;;;;0.00;0.00;;;;;;;;;;10520648;28;20067;-65
2021/09/06 19:19:49;;;;;;;0.00;0.00;;;;;;;;;;10523094;28;20094;-65
2021/09/06 19:24:53;;;;;;;0.00;0.00;;;;;;;;;;10520855;28;20134;-64
2021/09/06 19:30:01;;;;;;;0.00;0.00;;;;;;;;;;10518740;28;20059;-64
2021/09/06 19:35:05;;;;;;;0.00;0.00;;;;;;;;;;10516423;28;20044;-65
2021/09/06 19:40:09;;;;;;;0.00;0.00;;;;;;;;;;10513663;28;20391;-64
2021/09/06 19:45:15;;;;;;;0.00;0.00;;;;;;;;;;10497928;28;20093;-66
2021/09/06 19:50:23;;;;;;;0.00;0.00;;;;;;;;;;10517895;28;20490;-65
2021/09/06 19:55:28;;;;;;;0.00;0.00;;;;;;;;;;10518319;28;20101;-65
2021/09/06 20:00:33;;;;;;;0.00;0.00;;;;;;;;;;10517906;28;20044;-67
2021/09/06 20:05:37;;;;;;;0.00;0.00;;;;;;;;;;10517079;28;20133;-66
2021/09/06 20:10:45;;;;;;;0.00;0.00;;;;;;;;;;10516564;28;20048;-65
2021/09/06 20:15:50;;;;;;;0.00;0.00;;;;;;;;;;10515916;28;20188;-65
2021/09/06 20:20:54;;;;;;;0.00;0.00;;;;;;;;;;10525506;28;20061;-67
2021/09/06 20:25:58;;;;;;;0.00;0.00;;;;;;;;;;10504468;28;20128;-70
2021/09/06 20:31:02;;;;;;;0.00;0.00;;;;;;;;;;10524350;28;20040;-67
2021/09/06 20:36:05;;;;;;;0.00;0.00;;;;;;;;;;10521722;28;20139;-67
2021/09/06 20:41:08;;;;;;;0.00;0.00;;;;;;;;;;10523181;28;20497;-68
2021/09/06 20:46:12;;;;;;;0.00;0.00;;;;;;;;;;10524643;28;20044;-68
2021/09/06 20:51:15;;;;;;;0.00;0.00;;;;;;;;;;10537540;28;20089;-70
2021/09/06 20:56:18;;;;;;;0.00;0.00;;;;;;;;;;10521788;28;20075;-70
2021/09/06 21:01:22;;;;;;;0.00;0.00;;;;;;;;;;10521361;28;20046;-70
2021/09/06 21:06:25;;;;;;;0.00;0.00;;;;;;;;;;10520121;28;20043;-70
2021/09/06 21:11:29;;;;;;;0.00;0.00;;;;;;;;;;10524399;28;20055;-70
2021/09/06 21:16:34;;;;;;;0.00;0.00;;;;;;;;;;10534512;28;20048;-70
2021/09/06 21:21:37;;;;;;;0.00;0.00;;;;;;;;;;10520789;28;20502;-69
2021/09/06 21:26:41;;;;;;;0.10;0.10;;;;;;;;;;10521175;28;20040;-69
2021/09/06 21:31:46;;;;;;;0.00;0.00;;;;;;;;;;10523371;28;20047;-70
2021/09/06 21:36:50;;;;;;;0.00;0.00;;;;;;;;;;10522447;28;20036;-70
2021/09/06 21:41:53;;;;;;;0.00;0.00;;;;;;;;;;10519687;28;20048;-69
2021/09/06 21:46:57;;;;;;;0.00;0.00;;;;;;;;;;10522299;28;20040;-70
2021/09/06 21:52:01;;;;;;;0.00;0.00;;;;;;;;;;10520858;28;20418;-69
2021/09/06 21:57:04;;;;;;;0.00;0.00;;;;;;;;;;10519597;28;20048;-69
2021/09/06 22:02:08;;;;;;;0.00;0.00;;;;;;;;;;10501161;28;20409;-70
2021/09/06 22:07:11;;;;;;;0.00;0.00;;;;;;;;;;10520441;28;20043;-69
2021/09/06 22:12:14;;;;;;;0.00;0.00;;;;;;;;;;10518918;28;20406;-69
2021/09/06 22:17:19;;;;;;;0.00;0.00;;;;;;;;;;10521743;28;20046;-69
2021/09/06 22:22:22;;;;;;;0.00;0.00;;;;;;;;;;10503675;28;20047;-69
2021/09/06 22:27:32;;;;;;;0.00;0.00;;;;;;;;;;10502002;28;20051;-69
2021/09/06 22:32:37;;;;;;;0.00;0.00;;;;;;;;;;10503779;28;20066;-69
2021/09/06 22:37:40;;;;;;;0.10;0.03;;;;;;;;;;10519304;28;20067;-69
2021/09/06 22:42:43;;;;;;;0.00;0.00;;;;;;;;;;10516045;28;20159;-68
2021/09/06 22:47:47;;;;;;;0.00;0.00;;;;;;;;;;10519806;28;20051;-68
2021/09/06 22:52:51;;;;;;;0.00;0.00;;;;;;;;;;10517483;28;20052;-68
2021/09/06 22:57:54;;;;;;;0.00;0.00;;;;;;;;;;10518940;28;20136;-69
2021/09/06 23:02:59;;;;;;;0.00;0.00;;;;;;;;;;10521256;28;20119;-69
2021/09/06 23:08:03;;;;;;;0.00;0.00;;;;;;;;;;10519123;28;20047;-69
2021/09/06 23:13:05;;;;;;;0.00;0.00;;;;;;;;;;10518051;28;20040;-69
2021/09/06 23:18:11;;;;;;;0.00;0.00;;;;;;;;;;10504688;28;20075;-69
2021/09/06 23:23:14;;;;;;;0.00;0.00;;;;;;;;;;10517252;28;20064;-69
2021/09/06 23:28:17;;;;;;;0.00;0.00;;;;;;;;;;10517569;28;20044;-69
2021/09/06 23:33:21;;;;;;;0.10;0.05;;;;;;;;;;10518077;28;20044;-69
2021/09/06 23:38:24;;;;;;;0.00;0.00;;;;;;;;;;10518553;28;20127;-69
2021/09/06 23:43:27;;;;;;;0.00;0.00;;;;;;;;;;10516948;28;20130;-69
2021/09/06 23:48:31;;;;;;;0.00;0.00;;;;;;;;;;10500645;28;20132;-69
2021/09/06 23:53:33;;;;;;;0.00;0.00;;;;;;;;;;10515155;28;20052;-69
2021/09/06 23:58:36;;;;;;;0.00;0.00;;;;;;;;;;10517795;28;20684;-69
